LSGM7: Little Sugar Creek nr Pineville 7SW

Data processed at Tue May 21 2019 23:50


All information presented herein is the property of the government of the United States of America and may be revised or deleted at any time without prior notice.
Dissemination of this information without the expressed written consent of the Public Affairs Office, Tulsa District U.S. Army Corps of Engineers is strictly prohibited.
These data are gathered electronically and, as presented, have not undergone any form of quality control. These data are not guaranteed to be valid or correct.
Go to home page.
Go to station list.
Go to home page.

Downstream station:


Previous Day
Next Day
Current Day
    
SHEF ID:       LSGM7     Little Sugar Creek near Pinevill
STATION TYPE:  

               PRECIP     STAGE  STAGE(2)  RIV-FLOW   VOLTAGE
                   in        ft        ft       cfs      volt
              Ccp-Rev   Ccp-Rev   Ccp-Rev   Ccp-Rev   Ccp-Rev
(US/Central)
05/21 00:00      1.81      4.16      4.05       390     12.71
05/21 01:00      0.47      4.88      4.81       664     12.71
05/21 02:00      0.10      5.67      5.49      1051     12.71
05/21 03:00      0.04      6.91      6.80      1761     12.47
05/21 04:00      0.00      7.59      7.53      2245     12.47
05/21 05:00      0.00      7.31      7.23      2034     12.47
05/21 06:00      0.00      7.04      6.96      1845     12.47
05/21 07:00      0.00      6.96      6.87      1793     12.47
05/21 08:00      0.00      7.17      7.06      1932     12.71
05/21 09:00      0.00      7.62      7.54      2265     12.94
05/21 10:00      0.02      7.95      7.86      2509     12.71
05/21 11:00      0.97      8.29      8.16      2781     12.71
05/21 12:00      0.24      8.92      8.81      3294     12.47
05/21 13:00      0.02      9.79      9.61      4068     12.71
05/21 14:00      0.09     11.26     11.18      5560     12.71
05/21 15:00      0.03     12.18     12.12      6610     12.71
05/21 16:00      0.02     12.00     11.94      6397     13.17
05/21 17:00      0.00     11.65     11.54      5994     13.64
05/21 18:00      0.00     11.30     11.27      5604     13.17
05/21 19:00      0.00     11.24     11.17      5538     12.94
05/21 20:00      0.00     11.24     11.12      5538     12.94
05/21 21:00      0.00     11.03     10.99      5311     12.71
05/21 22:00      0.00     10.87     10.75      5142     12.71
05/21 23:00      0.00     10.54     10.47      4801     12.71